sensor_id;sensor_type;location;lat;lon;timestamp;P1;durP1;ratioP1;P2;durP2;ratioP2
1765;SDS011;880;52.452;8.656;2022-10-16T00:01:39;2.63;;;2.43;;
1765;SDS011;880;52.452;8.656;2022-10-16T00:04:06;2.83;;;2.63;;
1765;SDS011;880;52.452;8.656;2022-10-16T00:06:34;2.83;;;2.63;;
1765;SDS011;880;52.452;8.656;2022-10-16T00:09:01;6.03;;;2.93;;
1765;SDS011;880;52.452;8.656;2022-10-16T00:11:30;6.53;;;3.10;;
1765;SDS011;880;52.452;8.656;2022-10-16T00:14:00;3.67;;;3.10;;
1765;SDS011;880;52.452;8.656;2022-10-16T00:16:29;3.07;;;2.77;;
1765;SDS011;880;52.452;8.656;2022-10-16T00:18:57;3.63;;;3.40;;
1765;SDS011;880;52.452;8.656;2022-10-16T00:21:26;3.90;;;3.00;;
1765;SDS011;880;52.452;8.656;2022-10-16T00:23:59;5.03;;;3.93;;
1765;SDS011;880;52.452;8.656;2022-10-16T00:26:32;4.47;;;3.80;;
1765;SDS011;880;52.452;8.656;2022-10-16T00:29:03;5.50;;;3.97;;
1765;SDS011;880;52.452;8.656;2022-10-16T00:31:30;4.30;;;3.90;;
1765;SDS011;880;52.452;8.656;2022-10-16T00:33:58;4.23;;;3.83;;
1765;SDS011;880;52.452;8.656;2022-10-16T00:36:26;5.23;;;3.97;;
1765;SDS011;880;52.452;8.656;2022-10-16T00:38:54;4.87;;;4.13;;
1765;SDS011;880;52.452;8.656;2022-10-16T00:41:30;5.37;;;4.30;;
1765;SDS011;880;52.452;8.656;2022-10-16T00:43:59;4.63;;;4.23;;
1765;SDS011;880;52.452;8.656;2022-10-16T00:46:31;6.97;;;4.30;;
1765;SDS011;880;52.452;8.656;2022-10-16T00:49:12;8.20;;;5.03;;
1765;SDS011;880;52.452;8.656;2022-10-16T00:51:49;5.13;;;4.70;;
1765;SDS011;880;52.452;8.656;2022-10-16T00:54:24;5.73;;;5.10;;
1765;SDS011;880;52.452;8.656;2022-10-16T00:56:55;6.17;;;5.50;;
1765;SDS011;880;52.452;8.656;2022-10-16T00:59:28;6.37;;;5.67;;
1765;SDS011;880;52.452;8.656;2022-10-16T01:02:01;7.33;;;5.60;;
1765;SDS011;880;52.452;8.656;2022-10-16T01:04:35;7.10;;;6.10;;
1765;SDS011;880;52.452;8.656;2022-10-16T01:10:30;8.07;;;7.37;;
1765;SDS011;880;52.452;8.656;2022-10-16T01:13:07;8.03;;;6.70;;
1765;SDS011;880;52.452;8.656;2022-10-16T01:18:26;6.60;;;5.93;;
1765;SDS011;880;52.452;8.656;2022-10-16T01:21:08;7.43;;;6.10;;
1765;SDS011;880;52.452;8.656;2022-10-16T01:30:12;7.10;;;6.40;;
1765;SDS011;880;52.452;8.656;2022-10-16T01:32:17;9.33;;;7.13;;
1765;SDS011;880;52.452;8.656;2022-10-16T01:35:09;11.67;;;7.23;;
1765;SDS011;880;52.452;8.656;2022-10-16T01:40:35;7.87;;;7.07;;
1765;SDS011;880;52.452;8.656;2022-10-16T01:43:07;8.63;;;6.83;;
1765;SDS011;880;52.452;8.656;2022-10-16T01:45:41;7.67;;;6.90;;
1765;SDS011;880;52.452;8.656;2022-10-16T01:48:11;8.83;;;6.80;;
1765;SDS011;880;52.452;8.656;2022-10-16T01:50:43;8.03;;;6.60;;
1765;SDS011;880;52.452;8.656;2022-10-16T01:53:35;9.93;;;7.00;;
1765;SDS011;880;52.452;8.656;2022-10-16T01:56:03;8.17;;;7.00;;
1765;SDS011;880;52.452;8.656;2022-10-16T01:58:36;9.60;;;8.17;;
1765;SDS011;880;52.452;8.656;2022-10-16T02:01:08;10.13;;;7.27;;
1765;SDS011;880;52.452;8.656;2022-10-16T02:03:40;10.23;;;7.43;;
1765;SDS011;880;52.452;8.656;2022-10-16T02:06:09;9.00;;;8.03;;
1765;SDS011;880;52.452;8.656;2022-10-16T02:08:36;9.10;;;8.00;;
1765;SDS011;880;52.452;8.656;2022-10-16T02:11:05;9.53;;;8.53;;
1765;SDS011;880;52.452;8.656;2022-10-16T02:13:39;14.03;;;9.27;;
1765;SDS011;880;52.452;8.656;2022-10-16T02:16:23;12.43;;;9.00;;
1765;SDS011;880;52.452;8.656;2022-10-16T02:19:10;12.63;;;9.33;;
1765;SDS011;880;52.452;8.656;2022-10-16T02:21:43;13.20;;;8.03;;
1765;SDS011;880;52.452;8.656;2022-10-16T02:25:19;10.63;;;8.87;;
1765;SDS011;880;52.452;8.656;2022-10-16T02:32:52;10.47;;;7.93;;
1765;SDS011;880;52.452;8.656;2022-10-16T02:35:20;12.17;;;8.37;;
1765;SDS011;880;52.452;8.656;2022-10-16T02:37:48;9.50;;;8.40;;
1765;SDS011;880;52.452;8.656;2022-10-16T02:40:17;14.27;;;8.70;;
1765;SDS011;880;52.452;8.656;2022-10-16T02:42:50;13.67;;;7.60;;
1765;SDS011;880;52.452;8.656;2022-10-16T02:45:19;12.17;;;7.93;;
1765;SDS011;880;52.452;8.656;2022-10-16T02:47:48;10.67;;;8.53;;
1765;SDS011;880;52.452;8.656;2022-10-16T02:50:15;10.73;;;8.13;;
1765;SDS011;880;52.452;8.656;2022-10-16T02:52:43;13.73;;;8.57;;
1765;SDS011;880;52.452;8.656;2022-10-16T02:55:10;9.33;;;7.77;;
1765;SDS011;880;52.452;8.656;2022-10-16T02:57:37;12.20;;;7.87;;
1765;SDS011;880;52.452;8.656;2022-10-16T03:00:09;10.63;;;8.20;;
1765;SDS011;880;52.452;8.656;2022-10-16T03:02:40;8.33;;;7.50;;
1765;SDS011;880;52.452;8.656;2022-10-16T03:05:07;9.03;;;8.10;;
1765;SDS011;880;52.452;8.656;2022-10-16T03:07:35;12.10;;;8.03;;
1765;SDS011;880;52.452;8.656;2022-10-16T03:10:03;8.17;;;7.37;;
1765;SDS011;880;52.452;8.656;2022-10-16T03:12:30;8.23;;;7.37;;
1765;SDS011;880;52.452;8.656;2022-10-16T03:14:57;8.43;;;7.10;;
1765;SDS011;880;52.452;8.656;2022-10-16T03:17:24;11.67;;;8.87;;
1765;SDS011;880;52.452;8.656;2022-10-16T03:19:52;10.50;;;8.00;;
1765;SDS011;880;52.452;8.656;2022-10-16T03:22:19;8.07;;;6.97;;
1765;SDS011;880;52.452;8.656;2022-10-16T03:24:46;9.93;;;7.87;;
1765;SDS011;880;52.452;8.656;2022-10-16T03:27:13;8.13;;;7.33;;
1765;SDS011;880;52.452;8.656;2022-10-16T03:29:41;8.90;;;7.40;;
1765;SDS011;880;52.452;8.656;2022-10-16T03:32:08;9.97;;;8.03;;
1765;SDS011;880;52.452;8.656;2022-10-16T03:34:34;8.77;;;6.93;;
1765;SDS011;880;52.452;8.656;2022-10-16T03:37:02;9.27;;;8.00;;
1765;SDS011;880;52.452;8.656;2022-10-16T03:39:29;7.77;;;6.70;;
1765;SDS011;880;52.452;8.656;2022-10-16T03:41:56;10.27;;;7.77;;
1765;SDS011;880;52.452;8.656;2022-10-16T03:44:23;8.10;;;7.30;;
1765;SDS011;880;52.452;8.656;2022-10-16T03:46:50;11.40;;;7.30;;
1765;SDS011;880;52.452;8.656;2022-10-16T03:49:17;9.40;;;8.30;;
1765;SDS011;880;52.452;8.656;2022-10-16T03:51:44;8.23;;;7.33;;
1765;SDS011;880;52.452;8.656;2022-10-16T03:54:11;7.80;;;7.10;;
1765;SDS011;880;52.452;8.656;2022-10-16T03:56:38;7.70;;;6.90;;
1765;SDS011;880;52.452;8.656;2022-10-16T03:59:05;8.50;;;7.47;;
1765;SDS011;880;52.452;8.656;2022-10-16T04:01:32;7.23;;;6.43;;
1765;SDS011;880;52.452;8.656;2022-10-16T04:03:59;15.63;;;7.30;;
1765;SDS011;880;52.452;8.656;2022-10-16T04:06:26;7.60;;;6.90;;
1765;SDS011;880;52.452;8.656;2022-10-16T04:08:53;6.60;;;6.00;;
1765;SDS011;880;52.452;8.656;2022-10-16T04:11:20;8.17;;;5.90;;
1765;SDS011;880;52.452;8.656;2022-10-16T04:13:47;9.80;;;7.17;;
1765;SDS011;880;52.452;8.656;2022-10-16T04:16:14;8.43;;;6.53;;
1765;SDS011;880;52.452;8.656;2022-10-16T04:18:41;6.60;;;6.00;;
1765;SDS011;880;52.452;8.656;2022-10-16T04:21:08;6.17;;;5.67;;
1765;SDS011;880;52.452;8.656;2022-10-16T04:23:35;7.53;;;6.83;;
1765;SDS011;880;52.452;8.656;2022-10-16T04:26:03;7.53;;;6.73;;
1765;SDS011;880;52.452;8.656;2022-10-16T04:28:30;8.10;;;6.47;;
1765;SDS011;880;52.452;8.656;2022-10-16T04:30:57;6.03;;;5.43;;
1765;SDS011;880;52.452;8.656;2022-10-16T04:33:24;7.70;;;5.90;;
1765;SDS011;880;52.452;8.656;2022-10-16T04:35:57;9.03;;;6.10;;
1765;SDS011;880;52.452;8.656;2022-10-16T04:38:27;7.03;;;6.20;;
1765;SDS011;880;52.452;8.656;2022-10-16T04:40:54;6.67;;;6.00;;
1765;SDS011;880;52.452;8.656;2022-10-16T04:43:21;9.10;;;5.77;;
1765;SDS011;880;52.452;8.656;2022-10-16T04:45:49;6.87;;;5.80;;
1765;SDS011;880;52.452;8.656;2022-10-16T04:48:17;6.90;;;6.30;;
1765;SDS011;880;52.452;8.656;2022-10-16T04:50:44;7.83;;;5.70;;
1765;SDS011;880;52.452;8.656;2022-10-16T04:53:18;7.47;;;6.07;;
1765;SDS011;880;52.452;8.656;2022-10-16T04:55:45;7.43;;;5.73;;
1765;SDS011;880;52.452;8.656;2022-10-16T04:58:12;5.87;;;5.27;;
1765;SDS011;880;52.452;8.656;2022-10-16T05:00:39;6.60;;;5.63;;
1765;SDS011;880;52.452;8.656;2022-10-16T05:03:06;6.60;;;5.30;;
1765;SDS011;880;52.452;8.656;2022-10-16T05:05:35;6.07;;;4.70;;
1765;SDS011;880;52.452;8.656;2022-10-16T05:08:02;5.70;;;5.13;;
1765;SDS011;880;52.452;8.656;2022-10-16T05:10:30;7.60;;;5.70;;
1765;SDS011;880;52.452;8.656;2022-10-16T05:12:57;5.27;;;4.70;;
1765;SDS011;880;52.452;8.656;2022-10-16T05:15:24;5.70;;;5.10;;
1765;SDS011;880;52.452;8.656;2022-10-16T05:17:54;7.97;;;6.10;;
1765;SDS011;880;52.452;8.656;2022-10-16T05:20:22;5.57;;;4.90;;
1765;SDS011;880;52.452;8.656;2022-10-16T05:22:49;8.03;;;5.00;;
1765;SDS011;880;52.452;8.656;2022-10-16T05:25:16;5.20;;;4.67;;
1765;SDS011;880;52.452;8.656;2022-10-16T05:27:46;5.00;;;4.57;;
1765;SDS011;880;52.452;8.656;2022-10-16T05:30:15;5.07;;;4.63;;
1765;SDS011;880;52.452;8.656;2022-10-16T05:32:50;5.50;;;5.00;;
1765;SDS011;880;52.452;8.656;2022-10-16T05:35:18;6.70;;;4.60;;
1765;SDS011;880;52.452;8.656;2022-10-16T05:37:45;5.13;;;3.97;;
1765;SDS011;880;52.452;8.656;2022-10-16T05:40:13;7.00;;;4.97;;
1765;SDS011;880;52.452;8.656;2022-10-16T05:42:41;4.77;;;4.37;;
1765;SDS011;880;52.452;8.656;2022-10-16T05:45:09;6.17;;;4.03;;
1765;SDS011;880;52.452;8.656;2022-10-16T05:47:38;7.10;;;3.87;;
1765;SDS011;880;52.452;8.656;2022-10-16T05:50:05;5.23;;;4.53;;
1765;SDS011;880;52.452;8.656;2022-10-16T05:52:33;4.60;;;4.20;;
1765;SDS011;880;52.452;8.656;2022-10-16T05:55:00;4.50;;;4.10;;
1765;SDS011;880;52.452;8.656;2022-10-16T05:57:27;4.90;;;4.27;;
1765;SDS011;880;52.452;8.656;2022-10-16T05:59:54;6.87;;;4.30;;
1765;SDS011;880;52.452;8.656;2022-10-16T06:02:22;6.83;;;4.13;;
1765;SDS011;880;52.452;8.656;2022-10-16T06:04:50;5.20;;;3.87;;
1765;SDS011;880;52.452;8.656;2022-10-16T06:07:20;4.23;;;3.93;;
1765;SDS011;880;52.452;8.656;2022-10-16T06:09:52;4.00;;;3.70;;
1765;SDS011;880;52.452;8.656;2022-10-16T06:12:19;5.43;;;3.73;;
1765;SDS011;880;52.452;8.656;2022-10-16T06:14:46;6.10;;;3.80;;
1765;SDS011;880;52.452;8.656;2022-10-16T06:17:13;4.90;;;4.30;;
1765;SDS011;880;52.452;8.656;2022-10-16T06:19:41;7.00;;;4.30;;
1765;SDS011;880;52.452;8.656;2022-10-16T06:22:08;3.63;;;3.43;;
1765;SDS011;880;52.452;8.656;2022-10-16T06:24:35;8.23;;;4.27;;
1765;SDS011;880;52.452;8.656;2022-10-16T06:27:03;4.10;;;3.70;;
1765;SDS011;880;52.452;8.656;2022-10-16T06:29:31;4.17;;;3.77;;
1765;SDS011;880;52.452;8.656;2022-10-16T06:31:58;4.00;;;3.70;;
1765;SDS011;880;52.452;8.656;2022-10-16T06:34:25;4.00;;;3.60;;
1765;SDS011;880;52.452;8.656;2022-10-16T06:36:52;3.63;;;3.33;;
1765;SDS011;880;52.452;8.656;2022-10-16T06:39:19;4.23;;;3.83;;
1765;SDS011;880;52.452;8.656;2022-10-16T06:41:46;4.77;;;4.37;;
1765;SDS011;880;52.452;8.656;2022-10-16T06:44:15;4.47;;;4.17;;
1765;SDS011;880;52.452;8.656;2022-10-16T06:46:42;4.30;;;4.00;;
1765;SDS011;880;52.452;8.656;2022-10-16T06:49:09;3.70;;;3.40;;
1765;SDS011;880;52.452;8.656;2022-10-16T06:51:37;3.53;;;3.30;;
1765;SDS011;880;52.452;8.656;2022-10-16T06:54:08;5.90;;;3.60;;
1765;SDS011;880;52.452;8.656;2022-10-16T06:56:36;3.00;;;2.80;;
1765;SDS011;880;52.452;8.656;2022-10-16T06:59:03;3.73;;;3.43;;
1765;SDS011;880;52.452;8.656;2022-10-16T07:01:30;2.70;;;2.60;;
1765;SDS011;880;52.452;8.656;2022-10-16T07:03:58;3.50;;;3.20;;
1765;SDS011;880;52.452;8.656;2022-10-16T07:06:30;5.23;;;3.07;;
1765;SDS011;880;52.452;8.656;2022-10-16T07:09:00;4.00;;;3.27;;
1765;SDS011;880;52.452;8.656;2022-10-16T07:11:30;5.10;;;3.50;;
1765;SDS011;880;52.452;8.656;2022-10-16T07:13:57;3.40;;;3.20;;
1765;SDS011;880;52.452;8.656;2022-10-16T07:16:26;2.90;;;2.73;;
1765;SDS011;880;52.452;8.656;2022-10-16T07:18:55;4.43;;;3.00;;
1765;SDS011;880;52.452;8.656;2022-10-16T07:21:30;2.83;;;2.50;;
1765;SDS011;880;52.452;8.656;2022-10-16T07:24:06;4.23;;;2.60;;
1765;SDS011;880;52.452;8.656;2022-10-16T07:26:39;2.43;;;2.20;;
1765;SDS011;880;52.452;8.656;2022-10-16T07:29:08;2.90;;;2.53;;
1765;SDS011;880;52.452;8.656;2022-10-16T07:31:43;3.40;;;2.23;;
1765;SDS011;880;52.452;8.656;2022-10-16T07:34:11;2.73;;;2.53;;
1765;SDS011;880;52.452;8.656;2022-10-16T07:36:40;2.27;;;2.17;;
1765;SDS011;880;52.452;8.656;2022-10-16T07:39:12;2.53;;;2.33;;
1765;SDS011;880;52.452;8.656;2022-10-16T07:41:39;2.60;;;2.20;;
1765;SDS011;880;52.452;8.656;2022-10-16T07:44:07;3.70;;;2.50;;
1765;SDS011;880;52.452;8.656;2022-10-16T07:46:35;3.00;;;2.70;;
1765;SDS011;880;52.452;8.656;2022-10-16T07:49:02;2.40;;;2.20;;
1765;SDS011;880;52.452;8.656;2022-10-16T07:51:29;2.50;;;2.30;;
1765;SDS011;880;52.452;8.656;2022-10-16T07:53:57;2.13;;;2.03;;
1765;SDS011;880;52.452;8.656;2022-10-16T07:56:27;2.83;;;2.63;;
1765;SDS011;880;52.452;8.656;2022-10-16T07:58:54;2.37;;;2.27;;
1765;SDS011;880;52.452;8.656;2022-10-16T08:01:22;2.40;;;2.07;;
1765;SDS011;880;52.452;8.656;2022-10-16T08:03:50;4.27;;;2.40;;
1765;SDS011;880;52.452;8.656;2022-10-16T08:06:19;2.23;;;1.90;;
1765;SDS011;880;52.452;8.656;2022-10-16T08:08:53;2.17;;;2.07;;
1765;SDS011;880;52.452;8.656;2022-10-16T08:11:22;2.60;;;2.00;;
1765;SDS011;880;52.452;8.656;2022-10-16T08:13:49;5.03;;;2.20;;
1765;SDS011;880;52.452;8.656;2022-10-16T08:16:17;5.33;;;3.10;;
1765;SDS011;880;52.452;8.656;2022-10-16T08:18:44;2.50;;;2.30;;
1765;SDS011;880;52.452;8.656;2022-10-16T08:21:13;4.20;;;2.50;;
1765;SDS011;880;52.452;8.656;2022-10-16T08:23:47;2.80;;;2.57;;
1765;SDS011;880;52.452;8.656;2022-10-16T08:26:23;3.43;;;2.60;;
1765;SDS011;880;52.452;8.656;2022-10-16T08:28:52;7.27;;;3.10;;
1765;SDS011;880;52.452;8.656;2022-10-16T08:31:20;4.30;;;3.13;;
1765;SDS011;880;52.452;8.656;2022-10-16T08:33:48;3.63;;;3.43;;
1765;SDS011;880;52.452;8.656;2022-10-16T08:36:15;3.27;;;3.07;;
1765;SDS011;880;52.452;8.656;2022-10-16T08:38:43;3.50;;;3.10;;
1765;SDS011;880;52.452;8.656;2022-10-16T08:49:56;3.20;;;3.00;;
1765;SDS011;880;52.452;8.656;2022-10-16T08:52:31;3.30;;;3.03;;
1765;SDS011;880;52.452;8.656;2022-10-16T08:55:02;3.57;;;3.37;;
1765;SDS011;880;52.452;8.656;2022-10-16T08:57:30;3.50;;;3.20;;
1765;SDS011;880;52.452;8.656;2022-10-16T09:00:00;4.60;;;3.40;;
1765;SDS011;880;52.452;8.656;2022-10-16T09:02:49;5.03;;;3.97;;
1765;SDS011;880;52.452;8.656;2022-10-16T09:11:01;4.73;;;4.33;;
1765;SDS011;880;52.452;8.656;2022-10-16T09:16:39;6.23;;;4.70;;
1765;SDS011;880;52.452;8.656;2022-10-16T09:19:20;4.47;;;4.10;;
1765;SDS011;880;52.452;8.656;2022-10-16T09:21:54;6.23;;;5.03;;
1765;SDS011;880;52.452;8.656;2022-10-16T09:24:26;5.20;;;4.70;;
1765;SDS011;880;52.452;8.656;2022-10-16T09:26:54;4.03;;;3.73;;
1765;SDS011;880;52.452;8.656;2022-10-16T09:29:21;4.70;;;4.30;;
1765;SDS011;880;52.452;8.656;2022-10-16T09:31:51;4.10;;;3.80;;
1765;SDS011;880;52.452;8.656;2022-10-16T09:34:26;4.47;;;4.17;;
1765;SDS011;880;52.452;8.656;2022-10-16T09:37:03;4.83;;;4.40;;
1765;SDS011;880;52.452;8.656;2022-10-16T09:39:46;4.40;;;4.00;;
1765;SDS011;880;52.452;8.656;2022-10-16T09:42:27;6.10;;;3.73;;
1765;SDS011;880;52.452;8.656;2022-10-16T09:44:59;4.33;;;4.00;;
1765;SDS011;880;52.452;8.656;2022-10-16T09:47:27;4.73;;;3.70;;
1765;SDS011;880;52.452;8.656;2022-10-16T09:50:00;4.03;;;3.67;;
1765;SDS011;880;52.452;8.656;2022-10-16T09:52:32;3.70;;;3.50;;
1765;SDS011;880;52.452;8.656;2022-10-16T09:55:00;4.00;;;3.53;;
1765;SDS011;880;52.452;8.656;2022-10-16T09:57:52;3.50;;;3.20;;
1765;SDS011;880;52.452;8.656;2022-10-16T10:00:21;4.00;;;3.20;;
1765;SDS011;880;52.452;8.656;2022-10-16T10:02:50;3.50;;;3.30;;
1765;SDS011;880;52.452;8.656;2022-10-16T10:05:25;3.77;;;3.03;;
1765;SDS011;880;52.452;8.656;2022-10-16T10:07:56;2.93;;;2.60;;
1765;SDS011;880;52.452;8.656;2022-10-16T10:10:26;3.50;;;2.90;;
1765;SDS011;880;52.452;8.656;2022-10-16T10:12:58;3.00;;;2.70;;
1765;SDS011;880;52.452;8.656;2022-10-16T10:15:25;5.60;;;2.90;;
1765;SDS011;880;52.452;8.656;2022-10-16T10:17:59;2.90;;;2.70;;
1765;SDS011;880;52.452;8.656;2022-10-16T10:20:30;2.70;;;2.50;;
1765;SDS011;880;52.452;8.656;2022-10-16T10:23:21;2.60;;;2.40;;
1765;SDS011;880;52.452;8.656;2022-10-16T10:37:44;5.40;;;2.37;;
1765;SDS011;880;52.452;8.656;2022-10-16T10:46:45;1.50;;;1.40;;
1765;SDS011;880;52.452;8.656;2022-10-16T10:49:54;2.50;;;1.70;;
1765;SDS011;880;52.452;8.656;2022-10-16T10:55:51;3.60;;;1.83;;
1765;SDS011;880;52.452;8.656;2022-10-16T11:01:39;3.00;;;1.83;;
1765;SDS011;880;52.452;8.656;2022-10-16T11:07:27;2.17;;;1.57;;
1765;SDS011;880;52.452;8.656;2022-10-16T11:10:09;7.90;;;2.80;;
1765;SDS011;880;52.452;8.656;2022-10-16T11:12:44;4.30;;;1.80;;
1765;SDS011;880;52.452;8.656;2022-10-16T11:15:29;4.60;;;1.87;;
1765;SDS011;880;52.452;8.656;2022-10-16T11:18:16;3.53;;;2.07;;
1765;SDS011;880;52.452;8.656;2022-10-16T11:20:54;2.73;;;1.50;;
1765;SDS011;880;52.452;8.656;2022-10-16T11:23:28;5.07;;;1.70;;
1765;SDS011;880;52.452;8.656;2022-10-16T11:26:16;1.47;;;1.27;;
1765;SDS011;880;52.452;8.656;2022-10-16T11:28:53;2.30;;;1.60;;
1765;SDS011;880;52.452;8.656;2022-10-16T11:31:29;4.10;;;1.00;;
1765;SDS011;880;52.452;8.656;2022-10-16T11:34:17;4.43;;;1.57;;
1765;SDS011;880;52.452;8.656;2022-10-16T11:39:43;2.97;;;1.37;;
1765;SDS011;880;52.452;8.656;2022-10-16T11:47:34;2.40;;;2.03;;
1765;SDS011;880;52.452;8.656;2022-10-16T11:55:48;10.20;;;8.40;;
1765;SDS011;880;52.452;8.656;2022-10-16T11:58:32;1.80;;;1.20;;
1765;SDS011;880;52.452;8.656;2022-10-16T12:04:38;1.73;;;1.10;;
1765;SDS011;880;52.452;8.656;2022-10-16T12:07:17;2.97;;;1.13;;
1765;SDS011;880;52.452;8.656;2022-10-16T12:09:52;2.37;;;1.10;;
1765;SDS011;880;52.452;8.656;2022-10-16T12:15:15;3.20;;;1.40;;
1765;SDS011;880;52.452;8.656;2022-10-16T12:17:55;2.57;;;1.47;;
1765;SDS011;880;52.452;8.656;2022-10-16T12:20:25;2.03;;;1.10;;
1765;SDS011;880;52.452;8.656;2022-10-16T12:23:00;1.43;;;0.90;;
1765;SDS011;880;52.452;8.656;2022-10-16T12:25:31;1.57;;;0.97;;
1765;SDS011;880;52.452;8.656;2022-10-16T12:28:17;3.37;;;1.20;;
1765;SDS011;880;52.452;8.656;2022-10-16T12:31:03;3.27;;;1.27;;
1765;SDS011;880;52.452;8.656;2022-10-16T12:34:21;4.80;;;1.40;;
1765;SDS011;880;52.452;8.656;2022-10-16T12:36:32;3.30;;;1.20;;
1765;SDS011;880;52.452;8.656;2022-10-16T12:39:00;1.77;;;1.33;;
1765;SDS011;880;52.452;8.656;2022-10-16T12:41:31;1.53;;;1.43;;
1765;SDS011;880;52.452;8.656;2022-10-16T12:44:20;2.17;;;1.20;;
1765;SDS011;880;52.452;8.656;2022-10-16T12:46:52;3.40;;;1.57;;
1765;SDS011;880;52.452;8.656;2022-10-16T12:51:58;4.87;;;1.37;;
1765;SDS011;880;52.452;8.656;2022-10-16T12:54:43;1.93;;;1.20;;
1765;SDS011;880;52.452;8.656;2022-10-16T12:57:29;1.93;;;1.47;;
1765;SDS011;880;52.452;8.656;2022-10-16T13:03:27;3.03;;;1.60;;
1765;SDS011;880;52.452;8.656;2022-10-16T13:09:10;4.30;;;3.60;;
1765;SDS011;880;52.452;8.656;2022-10-16T13:12:02;1.80;;;1.60;;
1765;SDS011;880;52.452;8.656;2022-10-16T13:17:56;3.00;;;1.40;;
1765;SDS011;880;52.452;8.656;2022-10-16T13:28:49;2.80;;;1.80;;
1765;SDS011;880;52.452;8.656;2022-10-16T13:31:18;2.30;;;1.60;;
1765;SDS011;880;52.452;8.656;2022-10-16T13:33:53;3.00;;;2.17;;
1765;SDS011;880;52.452;8.656;2022-10-16T13:36:29;5.07;;;2.20;;
1765;SDS011;880;52.452;8.656;2022-10-16T13:39:12;1.73;;;1.63;;
1765;SDS011;880;52.452;8.656;2022-10-16T13:41:45;1.47;;;1.40;;
1765;SDS011;880;52.452;8.656;2022-10-16T13:44:23;2.30;;;1.90;;
1765;SDS011;880;52.452;8.656;2022-10-16T13:46:58;2.33;;;1.73;;
1765;SDS011;880;52.452;8.656;2022-10-16T13:49:29;2.73;;;2.13;;
1765;SDS011;880;52.452;8.656;2022-10-16T13:51:57;2.30;;;1.83;;
1765;SDS011;880;52.452;8.656;2022-10-16T13:54:26;3.73;;;1.80;;
1765;SDS011;880;52.452;8.656;2022-10-16T13:56:54;1.80;;;1.60;;
1765;SDS011;880;52.452;8.656;2022-10-16T13:59:34;2.30;;;2.20;;
1765;SDS011;880;52.452;8.656;2022-10-16T14:04:53;3.70;;;2.00;;
1765;SDS011;880;52.452;8.656;2022-10-16T14:07:24;2.13;;;1.40;;
1765;SDS011;880;52.452;8.656;2022-10-16T14:10:02;4.40;;;2.10;;
1765;SDS011;880;52.452;8.656;2022-10-16T14:12:32;4.60;;;1.80;;
1765;SDS011;880;52.452;8.656;2022-10-16T14:15:00;2.20;;;2.00;;
1765;SDS011;880;52.452;8.656;2022-10-16T14:17:28;2.83;;;1.80;;
1765;SDS011;880;52.452;8.656;2022-10-16T14:19:59;1.77;;;1.67;;
1765;SDS011;880;52.452;8.656;2022-10-16T14:22:40;2.77;;;1.53;;
1765;SDS011;880;52.452;8.656;2022-10-16T14:27:57;2.50;;;1.87;;
1765;SDS011;880;52.452;8.656;2022-10-16T14:30:29;3.30;;;2.03;;
1765;SDS011;880;52.452;8.656;2022-10-16T14:32:59;5.20;;;1.93;;
1765;SDS011;880;52.452;8.656;2022-10-16T14:35:33;2.77;;;1.90;;
1765;SDS011;880;52.452;8.656;2022-10-16T14:38:04;2.00;;;1.90;;
1765;SDS011;880;52.452;8.656;2022-10-16T14:40:45;1.70;;;1.60;;
1765;SDS011;880;52.452;8.656;2022-10-16T14:43:14;3.57;;;1.80;;
1765;SDS011;880;52.452;8.656;2022-10-16T14:45:52;3.40;;;1.70;;
1765;SDS011;880;52.452;8.656;2022-10-16T14:48:22;4.43;;;3.87;;
1765;SDS011;880;52.452;8.656;2022-10-16T14:50:50;2.10;;;1.83;;
1765;SDS011;880;52.452;8.656;2022-10-16T14:53:16;3.63;;;1.70;;
1765;SDS011;880;52.452;8.656;2022-10-16T14:55:43;3.03;;;2.37;;
1765;SDS011;880;52.452;8.656;2022-10-16T14:58:13;3.20;;;2.50;;
1765;SDS011;880;52.452;8.656;2022-10-16T15:00:44;4.50;;;1.67;;
1765;SDS011;880;52.452;8.656;2022-10-16T15:03:12;2.10;;;1.43;;
1765;SDS011;880;52.452;8.656;2022-10-16T15:05:39;2.47;;;1.50;;
1765;SDS011;880;52.452;8.656;2022-10-16T15:08:06;2.13;;;1.67;;
1765;SDS011;880;52.452;8.656;2022-10-16T15:10:35;2.50;;;1.30;;
1765;SDS011;880;52.452;8.656;2022-10-16T15:13:08;2.07;;;1.20;;
1765;SDS011;880;52.452;8.656;2022-10-16T15:15:45;2.00;;;1.13;;
1765;SDS011;880;52.452;8.656;2022-10-16T15:18:15;3.70;;;1.20;;
1765;SDS011;880;52.452;8.656;2022-10-16T15:20:48;2.80;;;1.30;;
1765;SDS011;880;52.452;8.656;2022-10-16T15:23:17;3.20;;;1.30;;
1765;SDS011;880;52.452;8.656;2022-10-16T15:25:48;1.83;;;1.20;;
1765;SDS011;880;52.452;8.656;2022-10-16T15:28:21;2.67;;;1.40;;
1765;SDS011;880;52.452;8.656;2022-10-16T15:30:50;1.77;;;1.30;;
1765;SDS011;880;52.452;8.656;2022-10-16T15:33:21;3.13;;;1.20;;
1765;SDS011;880;52.452;8.656;2022-10-16T15:35:53;4.27;;;1.50;;
1765;SDS011;880;52.452;8.656;2022-10-16T15:38:21;2.50;;;1.40;;
1765;SDS011;880;52.452;8.656;2022-10-16T15:40:49;3.83;;;2.07;;
1765;SDS011;880;52.452;8.656;2022-10-16T15:43:17;4.23;;;1.53;;
1765;SDS011;880;52.452;8.656;2022-10-16T15:45:47;4.00;;;1.70;;
1765;SDS011;880;52.452;8.656;2022-10-16T15:48:28;5.23;;;1.70;;
1765;SDS011;880;52.452;8.656;2022-10-16T15:50:56;2.40;;;1.27;;
1765;SDS011;880;52.452;8.656;2022-10-16T15:53:23;2.27;;;1.20;;
1765;SDS011;880;52.452;8.656;2022-10-16T15:55:50;3.07;;;1.20;;
1765;SDS011;880;52.452;8.656;2022-10-16T15:58:17;5.70;;;1.60;;
1765;SDS011;880;52.452;8.656;2022-10-16T16:00:45;4.10;;;1.77;;
1765;SDS011;880;52.452;8.656;2022-10-16T16:03:12;3.07;;;2.10;;
1765;SDS011;880;52.452;8.656;2022-10-16T16:05:39;6.33;;;5.47;;
1765;SDS011;880;52.452;8.656;2022-10-16T16:08:11;4.40;;;3.87;;
1765;SDS011;880;52.452;8.656;2022-10-16T16:10:38;4.20;;;3.80;;
1765;SDS011;880;52.452;8.656;2022-10-16T16:13:05;5.17;;;4.67;;
1765;SDS011;880;52.452;8.656;2022-10-16T16:15:32;3.90;;;3.60;;
1765;SDS011;880;52.452;8.656;2022-10-16T16:17:59;3.70;;;3.40;;
1765;SDS011;880;52.452;8.656;2022-10-16T16:20:28;5.70;;;4.07;;
1765;SDS011;880;52.452;8.656;2022-10-16T16:22:55;4.10;;;3.50;;
1765;SDS011;880;52.452;8.656;2022-10-16T16:25:22;6.30;;;3.30;;
1765;SDS011;880;52.452;8.656;2022-10-16T16:27:49;3.87;;;3.50;;
1765;SDS011;880;52.452;8.656;2022-10-16T16:30:16;2.60;;;2.40;;
1765;SDS011;880;52.452;8.656;2022-10-16T16:32:47;2.57;;;2.17;;
1765;SDS011;880;52.452;8.656;2022-10-16T16:35:14;4.30;;;2.50;;
1765;SDS011;880;52.452;8.656;2022-10-16T16:37:41;3.33;;;2.43;;
1765;SDS011;880;52.452;8.656;2022-10-16T16:40:08;3.53;;;2.83;;
1765;SDS011;880;52.452;8.656;2022-10-16T16:42:36;5.67;;;3.00;;
1765;SDS011;880;52.452;8.656;2022-10-16T16:45:03;2.77;;;2.60;;
1765;SDS011;880;52.452;8.656;2022-10-16T16:47:30;3.07;;;2.50;;
1765;SDS011;880;52.452;8.656;2022-10-16T16:49:57;2.60;;;1.80;;
1765;SDS011;880;52.452;8.656;2022-10-16T16:52:24;9.33;;;1.83;;
1765;SDS011;880;52.452;8.656;2022-10-16T16:54:51;4.20;;;2.10;;
1765;SDS011;880;52.452;8.656;2022-10-16T16:57:19;3.30;;;2.13;;
1765;SDS011;880;52.452;8.656;2022-10-16T16:59:46;1.93;;;1.83;;
1765;SDS011;880;52.452;8.656;2022-10-16T17:02:16;3.13;;;1.90;;
1765;SDS011;880;52.452;8.656;2022-10-16T17:04:43;4.97;;;2.20;;
1765;SDS011;880;52.452;8.656;2022-10-16T17:07:10;3.97;;;2.77;;
1765;SDS011;880;52.452;8.656;2022-10-16T17:09:37;8.23;;;7.20;;
1765;SDS011;880;52.452;8.656;2022-10-16T17:12:04;17.70;;;14.30;;
1765;SDS011;880;52.452;8.656;2022-10-16T17:14:31;48.27;;;40.50;;
1765;SDS011;880;52.452;8.656;2022-10-16T17:16:58;16.87;;;14.20;;
1765;SDS011;880;52.452;8.656;2022-10-16T17:19:25;9.80;;;7.20;;
1765;SDS011;880;52.452;8.656;2022-10-16T17:21:52;9.23;;;4.30;;
1765;SDS011;880;52.452;8.656;2022-10-16T17:24:19;4.77;;;2.47;;
1765;SDS011;880;52.452;8.656;2022-10-16T17:26:47;7.37;;;4.20;;
1765;SDS011;880;52.452;8.656;2022-10-16T17:29:15;7.10;;;6.40;;
1765;SDS011;880;52.452;8.656;2022-10-16T17:31:44;4.40;;;3.60;;
1765;SDS011;880;52.452;8.656;2022-10-16T17:34:11;4.30;;;3.90;;
1765;SDS011;880;52.452;8.656;2022-10-16T17:36:39;6.67;;;4.77;;
1765;SDS011;880;52.452;8.656;2022-10-16T17:39:10;7.50;;;5.00;;
1765;SDS011;880;52.452;8.656;2022-10-16T17:41:39;6.53;;;5.43;;
1765;SDS011;880;52.452;8.656;2022-10-16T17:44:06;6.90;;;4.50;;
1765;SDS011;880;52.452;8.656;2022-10-16T17:46:33;3.10;;;2.80;;